AGGH/HIR METAR and TAF weather

Enter ICAO airport designator
Station Type Date Time Source
AGGH METAR 2019/05/20 10:00 UTC NOAA

AGGH 201000Z 23003KT 9999 HZ FEW017 SCT300 26/24 Q1011


Station Type Date Time Source
AGGH Decoded METAR 2019/05/20 10:00 UTC NOAA

Honiara / Henderson, Solomon Islands (AGGH) 09-25S 160-03E 9M
May 20, 2019 - 06:00 AM EDT / 2019.05.20 1000 UTC
Wind: from the SW (230 degrees) at 3 MPH (3 KT):0
Visibility: greater than 7 mile(s):0
Sky conditions: partly cloudy
Weather: haze
Temperature: 78 F (26 C)
Dew Point: 75 F (24 C)
Relative Humidity: 88%
Pressure (altimeter): 29.85 in. Hg (1011 hPa)
ob: AGGH 201000Z 23003KT 9999 HZ FEW017 SCT300 26/24 Q1011
cycle: 10

Station Type Date Time Source
AGGH TAF 2019/05/20 06:21 UTC NOAA

TAF AGGH 200510Z 2006/2106 VRB03KT 9999 FEW018 T 29 28 26 25 Q 1007 1009 1010 1008

Example: see airport list